Terminal Aerodrome Forecast
Issued by NWS

Current Version | Previous Version | Text Only | Print | Product List | Glossary On
Versions: 1 2 3 4 5 6 7 8 9 10 11 12 13 14 15 16 17 18 19 20 21
000
FTUS46 KSEW 291131
TAFCLM
TAF
KCLM 291131Z 2912/3012 29011KT P6SM VCFG OVC005
     FM291700 32009KT P6SM BKN009 BKN250
     FM291900 32013G20KT P6SM FEW015 SCT250
     FM300000 29015G25KT P6SM FEW020 SCT090 SCT250
     FM300600 29013G20KT P6SM FEW015 SCT090 BKN250
     FM300900 29013KT P6SM VCSH OVC009=

USA.gov is the U.S. government's official web portal to all federal, state and local government web resources and services.